Time;durP1;ratioP1;P1;durP2;ratioP2;P2;SDS_P1;SDS_P2;PMS_P1;PMS_P2;Temp;Humidity;BMP_temperature;BMP_pressure;BME280_temperature;BME280_humidity;BME280_pressure;Samples;Min_cycle;Max_cycle;Signal;HPM_P1;HPM_P2
2021/10/26 00:01:45;;;;;;;14.40;12.03;;;;;;;10.96;83.57;100878.91;4861509;29;20467;-75
2021/10/26 00:04:10;;;;;;;15.95;12.45;;;;;;;10.98;83.46;100867.81;4862189;29;20879;-76
2021/10/26 00:06:36;;;;;;;16.33;12.27;;;;;;;10.99;83.55;100867.59;4861702;29;20561;-75
2021/10/26 00:09:03;;;;;;;18.20;11.93;;;;;;;11.01;83.51;100870.88;4861594;29;20924;-76
2021/10/26 00:11:29;;;;;;;13.02;11.63;;;;;;;11.02;83.47;100880.66;4845470;29;20933;-75
2021/10/26 00:13:55;;;;;;;14.43;11.47;;;;;;;11.01;83.54;100884.44;4860892;29;20429;-75
2021/10/26 00:16:20;;;;;;;16.00;11.90;;;;;;;11.04;83.49;100878.53;4861038;29;20551;-75
2021/10/26 00:18:45;;;;;;;16.87;12.20;;;;;;;11.06;83.48;100892.69;4861992;29;20410;-76
2021/10/26 00:21:11;;;;;;;13.60;11.90;;;;;;;11.05;83.61;100887.50;4861218;29;20418;-76
2021/10/26 00:23:36;;;;;;;14.80;11.90;;;;;;;11.11;83.48;100879.22;4861301;29;20422;-75
2021/10/26 00:26:04;;;;;;;14.02;11.63;;;;;;;11.00;84.03;100888.19;4845233;29;20457;-75
2021/10/26 00:28:33;;;;;;;14.80;11.80;;;;;;;10.96;84.53;100887.03;4858541;29;20449;-75
2021/10/26 00:30:58;;;;;;;14.90;11.50;;;;;;;10.99;84.34;100880.31;4861297;29;20434;-75
2021/10/26 00:33:24;;;;;;;16.10;11.87;;;;;;;11.00;84.20;100880.06;4867931;29;20416;-75
2021/10/26 00:35:50;;;;;;;13.70;11.10;;;;;;;11.05;83.75;100884.78;4856689;29;20426;-75
2021/10/26 00:38:15;;;;;;;14.30;11.90;;;;;;;11.01;84.05;100894.44;4861531;29;20418;-75
2021/10/26 00:40:43;;;;;;;16.47;11.97;;;;;;;11.00;84.40;100892.81;4859896;29;20414;-75
2021/10/26 00:43:09;;;;;;;14.50;11.98;;;;;;;10.98;84.44;100890.31;4860625;29;20418;-75
2021/10/26 00:45:34;;;;;;;19.27;12.00;;;;;;;11.00;84.36;100890.09;4861442;29;20438;-75
2021/10/26 00:47:59;;;;;;;14.43;11.23;;;;;;;10.98;84.35;100890.31;4861583;29;20441;-76
2021/10/26 00:50:24;;;;;;;16.87;12.40;;;;;;;10.97;84.57;100895.97;4860846;29;20601;-76
2021/10/26 00:52:50;;;;;;;14.23;11.57;;;;;;;10.96;84.51;100892.47;4863053;29;20427;-75
2021/10/26 00:55:15;;;;;;;12.85;11.40;;;;;;;10.98;84.90;100894.94;4858758;29;20429;-75
2021/10/26 00:57:41;;;;;;;16.57;10.87;;;;;;;10.98;84.86;100903.88;4843732;29;20463;-75
2021/10/26 01:00:07;;;;;;;13.65;11.25;;;;;;;11.01;84.87;100903.41;4860555;29;20426;-75
2021/10/26 01:02:33;;;;;;;14.45;11.38;;;;;;;11.01;84.76;100898.00;4861626;29;20949;-76
2021/10/26 01:04:59;;;;;;;13.82;11.52;;;;;;;11.00;84.86;100895.53;4860648;29;20429;-76
2021/10/26 01:07:24;;;;;;;14.57;11.13;;;;;;;11.00;85.01;100896.34;4858090;29;20408;-76
2021/10/26 01:09:49;;;;;;;15.63;11.87;;;;;;;11.00;85.14;100892.81;4856442;29;20426;-75
2021/10/26 01:12:15;;;;;;;16.17;11.40;;;;;;;11.01;84.87;100905.28;4860201;29;20422;-75
2021/10/26 01:14:40;;;;;;;14.00;11.10;;;;;;;11.00;84.95;100904.47;4860204;29;20418;-76
2021/10/26 01:17:08;;;;;;;20.33;12.40;;;;;;;11.02;85.05;100905.06;4844600;29;20514;-76
2021/10/26 01:19:46;;;;;;;13.23;11.35;;;;;;;11.02;84.90;100906.94;4860799;29;20886;-76
2021/10/26 01:22:14;;;;;;;14.20;11.20;;;;;;;11.01;85.13;100905.28;4843661;29;20421;-76
2021/10/26 01:24:39;;;;;;;13.30;11.20;;;;;;;11.00;84.88;100909.88;4858933;29;20423;-76
2021/10/26 01:27:05;;;;;;;13.60;10.60;;;;;;;11.00;84.87;100899.03;4860280;29;20546;-75
2021/10/26 01:29:30;;;;;;;14.97;10.60;;;;;;;10.98;84.93;100911.19;4859172;29;20498;-75
2021/10/26 01:31:56;;;;;;;12.77;11.40;;;;;;;10.99;85.17;100907.44;4842537;29;20430;-76
2021/10/26 01:34:21;;;;;;;15.67;10.77;;;;;;;11.00;85.19;100909.09;4859479;29;20574;-76
2021/10/26 01:36:51;;;;;;;13.53;10.90;;;;;;;11.02;85.49;100917.81;4843758;29;20804;-76
2021/10/26 01:39:17;;;;;;;12.95;11.25;;;;;;;11.02;85.25;100909.66;4860262;29;20407;-75
2021/10/26 01:41:42;;;;;;;12.83;11.30;;;;;;;11.01;85.23;100918.84;4860297;29;20430;-76
2021/10/26 01:44:07;;;;;;;13.35;10.93;;;;;;;11.01;85.06;100908.84;4845410;29;20422;-76
2021/10/26 01:46:33;;;;;;;12.20;10.63;;;;;;;11.00;85.28;100911.81;4861305;29;20427;-76
2021/10/26 01:48:58;;;;;;;12.98;10.73;;;;;;;10.94;85.39;100914.38;4860526;29;20433;-76
2021/10/26 01:51:24;;;;;;;18.23;14.40;;;;;;;10.93;85.41;100917.34;4860384;29;20437;-75
2021/10/26 01:53:49;;;;;;;15.07;12.27;;;;;;;10.91;85.50;100916.75;4843753;29;20425;-76
2021/10/26 01:56:15;;;;;;;13.70;11.23;;;;;;;10.90;85.45;100915.91;4859400;29;20433;-76
2021/10/26 01:58:40;;;;;;;13.90;11.20;;;;;;;10.91;85.92;100905.88;4857178;29;20461;-75
2021/10/26 02:01:06;;;;;;;21.60;11.73;;;;;;;10.91;85.74;100911.31;4843616;29;20450;-76
2021/10/26 02:03:31;;;;;;;12.23;10.93;;;;;;;10.92;85.69;100912.97;4844093;29;20969;-75
2021/10/26 02:05:56;;;;;;;14.07;11.27;;;;;;;10.91;85.33;100908.59;4859794;29;20774;-76
2021/10/26 02:08:21;;;;;;;18.07;11.13;;;;;;;10.90;85.73;100910.47;4843193;29;20418;-76
2021/10/26 02:10:47;;;;;;;13.07;11.20;;;;;;;10.90;85.52;100915.06;4859630;29;20473;-76
2021/10/26 02:13:14;;;;;;;14.63;11.40;;;;;;;10.90;85.53;100905.06;4843019;29;20950;-76
2021/10/26 02:15:40;;;;;;;14.75;11.38;;;;;;;10.90;85.54;100909.66;4859766;29;20418;-76
2021/10/26 02:18:05;;;;;;;14.63;11.10;;;;;;;10.90;85.53;100912.38;4857424;29;20478;-76
2021/10/26 02:20:30;;;;;;;15.10;11.23;;;;;;;10.91;85.43;100919.44;4859687;29;20489;-75
2021/10/26 02:22:56;;;;;;;18.33;12.03;;;;;;;10.91;85.53;100916.75;4859253;29;20461;-76
2021/10/26 02:25:22;;;;;;;16.27;11.73;;;;;;;10.91;85.18;100925.69;4859730;29;20422;-76
2021/10/26 02:27:47;;;;;;;15.57;12.30;;;;;;;10.91;85.32;100920.28;4858729;29;20513;-76
2021/10/26 02:30:12;;;;;;;15.17;11.87;;;;;;;10.94;85.42;100921.69;4858902;29;20438;-76
2021/10/26 02:32:37;;;;;;;17.70;12.73;;;;;;;10.94;85.45;100922.50;4861339;29;20434;-76
2021/10/26 02:35:03;;;;;;;17.60;11.47;;;;;;;10.94;85.20;100924.41;4842391;29;20426;-76
2021/10/26 02:37:29;;;;;;;17.02;11.00;;;;;;;10.93;85.27;100926.28;4859616;29;20410;-76
2021/10/26 02:39:54;;;;;;;14.80;10.98;;;;;;;10.93;85.13;100926.28;4858372;29;20418;-76
2021/10/26 02:42:19;;;;;;;15.27;11.37;;;;;;;10.94;85.21;100929.81;4859178;29;20974;-75
2021/10/26 02:44:45;;;;;;;14.45;11.75;;;;;;;10.95;85.15;100928.78;4859308;29;20490;-76
2021/10/26 02:47:10;;;;;;;15.47;11.83;;;;;;;10.95;84.98;100923.34;4858569;29;20828;-76
2021/10/26 02:49:35;;;;;;;14.30;11.03;;;;;;;10.96;85.12;100925.00;4859229;29;20410;-76
2021/10/26 02:52:00;;;;;;;16.03;11.20;;;;;;;10.96;85.14;100926.88;4862932;29;20898;-75
2021/10/26 02:54:26;;;;;;;20.77;11.67;;;;;;;10.96;85.26;100930.44;4860467;29;20505;-76
2021/10/26 02:56:51;;;;;;;14.50;11.70;;;;;;;10.97;85.05;100933.94;4858590;29;20470;-76
2021/10/26 02:59:18;;;;;;;15.77;11.03;;;;;;;10.96;85.06;100919.59;4858622;29;20545;-75
2021/10/26 03:01:45;;;;;;;16.15;11.63;;;;;;;10.97;84.94;100923.09;4855916;29;20426;-76
2021/10/26 03:04:10;;;;;;;18.25;14.00;;;;;;;10.97;84.90;100914.97;4843906;29;20418;-76
2021/10/26 03:06:36;;;;;;;20.17;14.07;;;;;;;10.97;84.98;100915.78;4859064;29;20935;-76
2021/10/26 03:09:01;;;;;;;23.73;14.80;;;;;;;10.99;84.91;100918.28;4860336;29;20434;-75
2021/10/26 03:11:26;;;;;;;22.13;13.43;;;;;;;10.97;84.87;100918.50;4841299;29;20953;-75
2021/10/26 03:13:51;;;;;;;16.60;12.20;;;;;;;10.99;84.98;100926.41;4847892;29;20922;-76
2021/10/26 03:16:17;;;;;;;16.77;12.40;;;;;;;11.00;84.91;100928.06;4858267;29;20426;-76
2021/10/26 03:18:42;;;;;;;18.57;12.60;;;;;;;10.99;84.87;100929.13;4842225;29;20425;-76
2021/10/26 03:21:07;;;;;;;15.50;11.37;;;;;;;10.99;85.09;100929.13;4859075;29;20875;-76
2021/10/26 03:23:33;;;;;;;13.95;11.02;;;;;;;10.99;84.86;100924.53;4841675;29;20414;-76
2021/10/26 03:25:58;;;;;;;13.77;10.77;;;;;;;11.01;85.14;100925.09;4841307;29;20513;-75
2021/10/26 03:28:24;;;;;;;14.30;10.70;;;;;;;11.02;85.00;100928.66;4858678;29;20546;-75
2021/10/26 03:30:49;;;;;;;14.13;10.18;;;;;;;11.02;84.88;100937.63;4841693;29;20445;-75
2021/10/26 03:33:14;;;;;;;17.00;11.80;;;;;;;11.04;84.88;100929.22;4856956;29;20521;-76
2021/10/26 03:35:40;;;;;;;14.53;10.57;;;;;;;11.03;84.87;100935.72;4856235;29;20414;-75
2021/10/26 03:38:06;;;;;;;13.93;10.87;;;;;;;11.04;84.80;100940.91;4841019;29;20433;-75
2021/10/26 03:40:31;;;;;;;19.02;10.80;;;;;;;11.06;84.94;100940.69;4845688;29;20541;-75
2021/10/26 03:42:57;;;;;;;15.00;9.77;;;;;;;11.07;84.85;100945.84;4858437;29;20496;-75
2021/10/26 03:45:22;;;;;;;15.13;9.87;;;;;;;11.08;84.87;100946.69;4858177;29;20920;-76
2021/10/26 03:47:47;;;;;;;13.93;10.20;;;;;;;11.08;84.77;100936.66;4857888;29;20418;-75
2021/10/26 03:50:14;;;;;;;13.20;9.27;;;;;;;11.09;84.78;100940.22;4858349;29;20433;-76
2021/10/26 03:52:40;;;;;;;13.82;9.82;;;;;;;11.09;84.83;100934.78;4859103;29;20410;-75
2021/10/26 03:55:07;;;;;;;18.03;11.10;;;;;;;11.09;84.64;100929.38;4858002;29;20770;-76
2021/10/26 03:57:32;;;;;;;15.10;10.32;;;;;;;11.05;84.65;100934.44;4857460;29;20558;-80
2021/10/26 03:59:58;;;;;;;14.35;9.63;;;;;;;11.03;84.98;100941.16;4857847;29;20442;-75
2021/10/26 04:02:25;;;;;;;15.00;10.07;;;;;;;11.01;85.07;100935.97;4861191;29;20978;-76
2021/10/26 04:04:57;;;;;;;12.85;9.88;;;;;;;10.98;85.14;100952.69;4857898;29;20782;-75
2021/10/26 04:07:22;;;;;;;18.58;11.20;;;;;;;10.98;85.12;100951.88;4856405;29;20414;-75
2021/10/26 04:09:55;;;;;;;15.23;11.10;;;;;;;10.96;85.08;100949.41;4838888;29;20946;-75
2021/10/26 04:14:49;;;;;;;15.03;10.80;;;;;;;10.94;85.26;100954.22;4858815;29;20436;-75
2021/10/26 04:17:14;;;;;;;18.02;10.75;;;;;;;10.96;85.22;100956.72;4840278;29;20426;-76
2021/10/26 04:19:40;;;;;;;15.00;10.83;;;;;;;10.97;85.19;100961.06;4858439;29;20732;-75
2021/10/26 04:22:07;;;;;;;18.58;11.73;;;;;;;10.97;85.15;100969.19;4857389;29;20418;-76
2021/10/26 04:24:32;;;;;;;15.07;10.88;;;;;;;10.96;85.06;100962.97;4858160;29;20418;-75
2021/10/26 04:26:57;;;;;;;12.70;10.70;;;;;;;10.97;85.23;100975.44;4853258;29;20849;-75
2021/10/26 04:29:22;;;;;;;19.63;11.53;;;;;;;10.98;85.21;100965.44;4841837;29;20442;-75
2021/10/26 04:31:48;;;;;;;15.53;12.30;;;;;;;10.96;85.11;100959.44;4856526;29;20476;-75
2021/10/26 04:34:13;;;;;;;20.77;12.80;;;;;;;10.94;85.24;100957.78;4858007;29;20475;-76
2021/10/26 04:36:38;;;;;;;14.80;10.93;;;;;;;10.91;85.19;100957.41;4856779;29;20399;-75
2021/10/26 04:39:04;;;;;;;14.33;11.90;;;;;;;10.87;85.25;100954.34;4858829;29;20966;-76
2021/10/26 04:41:34;;;;;;;12.63;10.73;;;;;;;10.84;85.25;100962.13;4857741;29;20419;-75
2021/10/26 04:44:07;;;;;;;14.55;11.88;;;;;;;10.78;85.29;100955.75;4861789;29;20421;-75
2021/10/26 04:46:33;;;;;;;16.08;11.85;;;;;;;10.74;85.47;100962.69;4856563;29;20794;-75
2021/10/26 04:48:59;;;;;;;15.63;12.48;;;;;;;10.70;85.40;100963.41;4860800;29;20476;-75
2021/10/26 04:51:25;;;;;;;16.58;12.35;;;;;;;10.67;85.62;100963.88;4869333;29;20430;-76
2021/10/26 04:53:50;;;;;;;17.37;12.30;;;;;;;10.63;85.55;100970.81;4860588;29;20440;-76
2021/10/26 04:56:15;;;;;;;14.97;12.60;;;;;;;10.62;85.87;100969.16;4862250;29;20430;-75
2021/10/26 04:58:40;;;;;;;16.60;12.90;;;;;;;10.61;85.47;100970.22;4860725;29;20426;-76
2021/10/26 05:01:06;;;;;;;20.20;14.70;;;;;;;10.60;85.59;100972.13;4859390;29;20418;-75
2021/10/26 05:03:31;;;;;;;23.50;15.77;;;;;;;10.60;85.64;100972.13;4847187;29;20422;-75
2021/10/26 05:05:57;;;;;;;21.77;16.27;;;;;;;10.58;85.65;100979.63;4860881;29;20415;-75
2021/10/26 05:08:23;;;;;;;22.40;15.63;;;;;;;10.55;85.64;100961.13;4860904;29;20410;-75
2021/10/26 05:10:48;;;;;;;20.57;15.13;;;;;;;10.53;85.49;100971.41;4858870;29;20449;-76
2021/10/26 05:13:14;;;;;;;16.15;13.27;;;;;;;10.51;85.62;100968.06;4837951;29;20914;-76
2021/10/26 05:15:39;;;;;;;19.10;14.50;;;;;;;10.52;85.51;100974.31;4854864;29;20437;-76
2021/10/26 05:18:05;;;;;;;21.08;15.70;;;;;;;10.55;85.91;100969.25;4854901;29;20898;-76
2021/10/26 05:20:32;;;;;;;20.88;15.07;;;;;;;10.60;85.85;100976.72;4860278;29;20488;-75
2021/10/26 05:22:57;;;;;;;18.00;14.05;;;;;;;10.63;85.91;100977.06;4855730;29;20420;-75
2021/10/26 05:25:34;;;;;;;18.13;13.13;;;;;;;10.67;85.69;100977.44;4853018;29;20418;-74
2021/10/26 05:28:00;;;;;;;19.52;13.45;;;;;;;10.68;85.53;100981.78;4856897;29;20422;-75
2021/10/26 05:30:27;;;;;;;16.20;12.25;;;;;;;10.68;85.83;100981.78;4862159;29;20429;-74
2021/10/26 05:32:52;;;;;;;16.27;12.23;;;;;;;10.69;85.49;100986.16;4856779;29;20533;-74
2021/10/26 05:35:18;;;;;;;17.70;12.82;;;;;;;10.69;85.83;100986.97;4839456;29;20927;-75
2021/10/26 05:37:46;;;;;;;18.08;13.18;;;;;;;10.69;85.98;100981.56;4855774;29;20426;-75
2021/10/26 05:40:15;;;;;;;17.27;13.95;;;;;;;10.70;85.61;100994.03;4837062;29;20931;-74
2021/10/26 05:42:40;;;;;;;18.73;14.52;;;;;;;10.71;85.74;100984.03;4855153;29;20793;-75
2021/10/26 05:45:06;;;;;;;19.48;14.40;;;;;;;10.71;85.78;100990.28;4858930;29;20965;-74
2021/10/26 05:47:32;;;;;;;18.70;12.82;;;;;;;10.70;85.77;100996.75;4854506;29;20445;-75
2021/10/26 05:49:58;;;;;;;17.23;12.75;;;;;;;10.70;85.68;100985.91;4862801;29;20894;-73
2021/10/26 05:52:23;;;;;;;18.37;14.20;;;;;;;10.70;85.63;100991.31;4857915;29;20509;-74
2021/10/26 05:54:49;;;;;;;17.30;14.57;;;;;;;10.70;85.52;100991.31;4838797;29;20808;-74
2021/10/26 05:57:14;;;;;;;17.73;14.23;;;;;;;10.71;85.57;100989.44;4856586;29;20486;-73
2021/10/26 05:59:40;;;;;;;19.80;14.50;;;;;;;10.70;85.56;100994.03;4860373;29;20418;-74
2021/10/26 06:02:06;;;;;;;16.92;13.73;;;;;;;10.69;85.70;100995.13;4840637;29;20513;-74
2021/10/26 06:04:31;;;;;;;17.17;12.68;;;;;;;10.69;85.93;100997.81;4856190;29;20434;-74
2021/10/26 06:06:57;;;;;;;18.23;12.83;;;;;;;10.69;86.02;101000.53;4860118;29;20422;-74
2021/10/26 06:09:23;;;;;;;18.13;12.80;;;;;;;10.71;85.93;101014.66;4860268;29;20899;-73
2021/10/26 06:11:50;;;;;;;16.40;12.07;;;;;;;10.71;85.98;101011.97;4845149;29;20932;-74
2021/10/26 06:14:16;;;;;;;16.60;12.88;;;;;;;10.70;85.98;101010.28;4859172;29;20453;-74
2021/10/26 06:16:41;;;;;;;16.33;12.53;;;;;;;10.68;85.86;101017.00;4860799;29;20414;-75
2021/10/26 06:19:08;;;;;;;18.30;13.37;;;;;;;10.66;86.00;101016.44;4842561;29;20414;-74
2021/10/26 06:21:34;;;;;;;16.23;13.00;;;;;;;10.65;85.96;101015.59;4857836;29;21026;-74
2021/10/26 06:24:00;;;;;;;18.90;13.50;;;;;;;10.65;85.98;101031.03;4858970;29;20418;-75
2021/10/26 06:26:26;;;;;;;18.35;14.93;;;;;;;10.65;85.98;101033.75;4858276;29;20902;-75
2021/10/26 06:28:52;;;;;;;23.08;16.52;;;;;;;10.65;86.19;101033.75;4859007;29;20506;-74
2021/10/26 06:31:21;;;;;;;21.90;15.20;;;;;;;10.64;86.10;101030.19;4843882;29;20449;-75
2021/10/26 06:33:50;;;;;;;20.85;14.02;;;;;;;10.67;86.25;101042.50;4842117;29;20420;-75
2021/10/26 06:36:15;;;;;;;19.90;13.73;;;;;;;10.67;86.11;101042.50;4852522;29;20459;-75
2021/10/26 06:38:41;;;;;;;20.33;13.90;;;;;;;10.66;86.20;101043.53;4857593;29;20486;-74
2021/10/26 06:41:07;;;;;;;20.45;14.30;;;;;;;10.66;86.40;101048.97;4860043;29;20418;-75
2021/10/26 06:43:34;;;;;;;15.88;13.35;;;;;;;10.68;86.27;101049.53;4859302;29;20410;-75
2021/10/26 06:46:00;;;;;;;17.45;13.82;;;;;;;10.72;86.35;101051.56;4836391;29;20431;-74
2021/10/26 06:48:25;;;;;;;17.57;13.00;;;;;;;10.78;86.25;101056.06;4857359;29;20429;-75
2021/10/26 06:50:51;;;;;;;16.55;13.00;;;;;;;10.83;86.22;101060.81;4842180;29;20774;-75
2021/10/26 06:53:17;;;;;;;20.73;15.10;;;;;;;10.86;85.81;101068.47;4858905;29;20415;-75
2021/10/26 06:55:43;;;;;;;19.70;13.85;;;;;;;10.86;86.06;101069.31;4859479;29;20436;-74
2021/10/26 06:58:09;;;;;;;17.48;13.13;;;;;;;10.87;86.01;101061.97;4854376;29;20426;-73
2021/10/26 07:00:34;;;;;;;20.67;15.77;;;;;;;10.89;86.44;101057.16;4858717;29;20989;-74
2021/10/26 07:03:03;;;;;;;17.35;14.35;;;;;;;10.94;86.36;101060.00;4859181;29;20890;-75
2021/10/26 07:05:28;;;;;;;16.60;13.93;;;;;;;10.97;86.39;101062.22;4858234;29;20419;-74
2021/10/26 07:07:54;;;;;;;20.90;14.87;;;;;;;10.97;86.34;101067.66;4837875;29;20437;-74
2021/10/26 07:10:20;;;;;;;19.33;15.03;;;;;;;11.00;86.19;101074.53;4858207;29;20479;-74
2021/10/26 07:12:45;;;;;;;19.85;16.05;;;;;;;11.04;86.43;101075.69;4859138;29;20420;-73
2021/10/26 07:15:12;;;;;;;20.15;15.43;;;;;;;11.05;86.42;101080.06;4859038;29;20410;-74
2021/10/26 07:17:39;;;;;;;18.75;15.05;;;;;;;11.04;86.43;101089.25;4855874;29;20426;-75
2021/10/26 07:20:07;;;;;;;20.75;15.43;;;;;;;11.04;86.42;101094.66;4858682;29;20413;-75
2021/10/26 07:22:35;;;;;;;20.95;14.90;;;;;;;11.07;86.35;101097.75;4841833;29;20473;-74
2021/10/26 07:25:06;;;;;;;19.90;14.65;;;;;;;11.14;86.17;101098.47;4858739;29;20898;-73
2021/10/26 07:27:33;;;;;;;21.88;15.90;;;;;;;11.21;86.18;101082.91;4825145;29;20422;-74
2021/10/26 07:29:59;;;;;;;23.38;17.23;;;;;;;11.25;85.96;101092.25;4858236;29;20914;-73
2021/10/26 07:32:24;;;;;;;22.27;16.58;;;;;;;11.29;86.07;101100.75;4858551;29;20448;-74
2021/10/26 07:34:49;;;;;;;24.03;16.17;;;;;;;11.31;85.83;101110.31;4858794;29;20398;-73
2021/10/26 07:37:20;;;;;;;21.17;15.07;;;;;;;11.34;85.97;101117.16;4840606;29;20778;-74
2021/10/26 07:39:46;;;;;;;18.88;14.10;;;;;;;11.37;85.91;101109.38;4850727;29;20398;-74
2021/10/26 07:42:14;;;;;;;19.45;14.43;;;;;;;11.43;85.85;101115.72;4858758;29;20418;-73
2021/10/26 07:44:40;;;;;;;20.35;14.10;;;;;;;11.48;85.61;101115.88;4856495;29;20425;-74
2021/10/26 07:47:05;;;;;;;21.27;15.18;;;;;;;11.48;85.61;101124.03;4845324;29;20434;-73
2021/10/26 07:49:32;;;;;;;19.87;14.87;;;;;;;11.54;85.76;101128.50;4841347;29;20433;-75
2021/10/26 07:51:58;;;;;;;24.42;15.02;;;;;;;11.60;85.42;101135.69;4858274;29;20426;-74
2021/10/26 07:54:24;;;;;;;20.73;14.90;;;;;;;11.58;85.66;101129.69;4858748;29;20433;-74
2021/10/26 07:56:51;;;;;;;21.55;15.10;;;;;;;11.60;85.85;101132.16;4839902;29;20402;-74
2021/10/26 07:59:17;;;;;;;17.95;14.55;;;;;;;11.63;86.00;101135.22;4853835;29;20426;-74
2021/10/26 08:01:45;;;;;;;21.37;14.80;;;;;;;11.71;85.81;101131.38;4858185;29;20422;-74
2021/10/26 08:04:10;;;;;;;17.92;13.88;;;;;;;11.83;85.70;101135.75;4858208;29;20478;-74
2021/10/26 08:06:35;;;;;;;18.05;14.25;;;;;;;11.92;85.35;101134.31;4858166;29;20517;-74
2021/10/26 08:09:04;;;;;;;18.63;15.30;;;;;;;11.98;85.26;101137.16;4855581;29;20422;-74
2021/10/26 08:11:32;;;;;;;20.83;15.70;;;;;;;11.94;85.24;101134.91;4853385;29;20438;-74
2021/10/26 08:14:00;;;;;;;20.05;15.20;;;;;;;11.86;85.36;101129.00;4855570;29;20422;-75
2021/10/26 08:16:25;;;;;;;23.90;15.70;;;;;;;11.85;85.59;101127.38;4851352;29;20434;-75
2021/10/26 08:18:51;;;;;;;20.10;15.47;;;;;;;11.86;85.73;101137.97;4859547;29;20469;-75
2021/10/26 08:21:16;;;;;;;22.65;15.88;;;;;;;11.88;85.61;101138.59;4861630;29;20418;-75
2021/10/26 08:23:43;;;;;;;22.70;17.00;;;;;;;11.91;85.37;101135.41;4861590;29;20768;-75
2021/10/26 08:26:15;;;;;;;24.48;16.08;;;;;;;11.90;85.32;101133.72;4861065;29;20425;-75
2021/10/26 08:28:40;;;;;;;25.50;17.40;;;;;;;11.92;85.47;101136.22;4857516;29;20426;-74
2021/10/26 08:34:01;;;;;;;25.05;16.15;;;;;;;11.94;85.60;101137.63;4855893;29;20489;-77
2021/10/26 08:36:27;;;;;;;22.90;16.75;;;;;;;11.93;85.38;101144.13;4860263;29;20429;-75
2021/10/26 08:38:52;;;;;;;24.15;17.77;;;;;;;11.98;85.72;101135.28;4861479;29;20406;-76
2021/10/26 08:41:18;;;;;;;21.70;16.13;;;;;;;12.02;85.71;101138.34;4861853;29;20767;-75
2021/10/26 08:43:44;;;;;;;22.02;16.63;;;;;;;12.04;85.33;101134.31;4861890;29;20433;-77
2021/10/26 08:46:12;;;;;;;22.45;17.70;;;;;;;12.08;85.48;101135.50;4840703;29;20432;-75
2021/10/26 08:48:40;;;;;;;22.65;16.50;;;;;;;12.12;85.37;101141.28;4842686;29;20416;-75
2021/10/26 08:51:06;;;;;;;22.92;16.05;;;;;;;12.14;85.46;101148.13;4843060;29;20428;-75
2021/10/26 08:53:32;;;;;;;21.73;15.50;;;;;;;12.14;85.20;101141.88;4843285;29;20788;-75
2021/10/26 08:56:00;;;;;;;20.98;15.73;;;;;;;12.13;85.32;101132.88;4843429;29;20419;-75
2021/10/26 08:58:31;;;;;;;20.20;15.43;;;;;;;12.17;84.88;101135.94;4839844;29;20947;-76
2021/10/26 09:01:01;;;;;;;23.48;16.13;;;;;;;12.17;85.02;101128.63;4841803;29;20453;-75
2021/10/26 09:03:36;;;;;;;21.98;14.63;;;;;;;12.20;85.03;101136.31;4839342;29;20424;-76
2021/10/26 09:06:03;;;;;;;19.58;14.13;;;;;;;12.24;85.17;101133.94;4836846;29;20507;-75
2021/10/26 09:08:29;;;;;;;18.52;14.25;;;;;;;12.26;84.88;101132.63;4842756;29;20584;-75
2021/10/26 09:11:00;;;;;;;20.08;14.35;;;;;;;12.21;85.09;101134.41;4841348;29;20502;-75
2021/10/26 09:19:13;;;;;;;22.83;15.57;;;;;;;12.20;85.04;101149.06;4840958;29;20496;-75
2021/10/26 09:21:40;;;;;;;21.02;15.57;;;;;;;12.16;84.86;101147.88;4840759;29;20891;-76
2021/10/26 09:24:08;;;;;;;20.02;13.85;;;;;;;12.16;85.24;101147.88;4840453;29;20424;-75
2021/10/26 09:26:52;;;;;;;18.58;14.82;;;;;;;12.17;85.05;101147.66;4840841;29;20465;-76
2021/10/26 09:29:22;;;;;;;19.35;14.63;;;;;;;12.17;85.18;101144.09;4837622;29;20415;-75
2021/10/26 09:31:48;;;;;;;21.45;15.55;;;;;;;12.24;85.19;101142.09;4841103;29;20436;-75
2021/10/26 09:34:18;;;;;;;24.45;14.60;;;;;;;12.33;85.33;101148.78;4841968;29;20426;-76
2021/10/26 09:36:47;;;;;;;19.55;14.40;;;;;;;12.40;85.00;101142.16;4842176;29;20499;-76
2021/10/26 09:39:16;;;;;;;21.70;14.50;;;;;;;12.43;84.65;101149.00;4840692;29;20851;-76
2021/10/26 09:42:01;;;;;;;18.17;14.98;;;;;;;12.48;84.67;101151.81;4840008;29;20423;-76
2021/10/26 09:44:36;;;;;;;18.50;14.77;;;;;;;12.55;84.49;101149.78;4839009;29;20837;-76
2021/10/26 09:47:23;;;;;;;19.10;15.43;;;;;;;12.57;84.69;101164.00;4859677;29;20434;-75
2021/10/26 09:49:59;;;;;;;23.95;14.77;;;;;;;12.51;84.46;101158.69;4863446;29;20406;-76
2021/10/26 09:52:30;;;;;;;21.13;14.60;;;;;;;12.49;84.71;101150.75;4860208;29;20418;-76
2021/10/26 09:55:11;;;;;;;17.75;13.98;;;;;;;12.49;84.76;101158.91;4856632;29;20474;-76
2021/10/26 09:57:37;;;;;;;16.30;13.27;;;;;;;12.46;84.62;101156.69;4853990;29;20414;-76
2021/10/26 10:00:06;;;;;;;14.80;12.63;;;;;;;12.48;84.86;101158.09;4859919;29;20474;-75
2021/10/26 10:02:31;;;;;;;21.45;13.07;;;;;;;12.59;84.65;101166.47;4860272;29;20416;-76
2021/10/26 10:04:58;;;;;;;18.20;12.82;;;;;;;12.62;84.02;101163.25;4856930;29;20426;-76
2021/10/26 10:07:35;;;;;;;17.33;12.85;;;;;;;12.63;84.14;101162.19;4843705;29;20446;-76
2021/10/26 10:10:04;;;;;;;20.67;15.88;;;;;;;12.71;84.16;101159.91;4857105;29;20413;-75
2021/10/26 10:12:32;;;;;;;21.03;13.90;;;;;;;12.83;83.71;101159.88;4856357;29;20808;-75
2021/10/26 10:14:57;;;;;;;14.35;11.80;;;;;;;12.82;83.42;101163.66;4856208;29;20918;-76
2021/10/26 10:17:26;;;;;;;18.95;12.20;;;;;;;12.83;83.09;101159.88;4860035;29;20414;-76
2021/10/26 10:19:53;;;;;;;15.82;11.57;;;;;;;13.01;82.86;101157.78;4859807;29;20406;-76
2021/10/26 10:22:28;;;;;;;17.50;11.55;;;;;;;13.21;82.23;101151.06;4856732;29;20422;-76
2021/10/26 10:24:57;;;;;;;15.23;11.55;;;;;;;13.41;81.32;101146.00;4842212;29;20450;-76
2021/10/26 10:27:28;;;;;;;13.27;10.60;;;;;;;13.54;80.25;101151.09;4857592;29;20422;-75
2021/10/26 10:29:54;;;;;;;14.93;10.77;;;;;;;13.58;79.74;101149.53;4858403;29;20406;-75
2021/10/26 10:32:24;;;;;;;16.35;10.68;;;;;;;13.40;80.65;101156.03;4859250;29;20430;-76
2021/10/26 10:34:51;;;;;;;15.00;9.90;;;;;;;13.38;80.87;101152.75;4858238;29;20419;-76
2021/10/26 10:37:21;;;;;;;14.80;10.13;;;;;;;13.56;80.43;101151.69;4859743;29;20417;-76
2021/10/26 10:40:03;;;;;;;13.73;10.02;;;;;;;13.77;79.84;101139.22;4841815;29;20787;-75
2021/10/26 10:42:31;;;;;;;13.18;8.98;;;;;;;13.89;79.76;101145.41;4843190;29;20418;-76
2021/10/26 10:44:59;;;;;;;14.63;9.20;;;;;;;13.95;79.63;101150.69;4857829;29;20516;-76
2021/10/26 10:47:39;;;;;;;13.80;9.70;;;;;;;14.15;78.46;101146.59;4858477;29;20406;-74
2021/10/26 10:50:33;;;;;;;12.63;8.33;;;;;;;14.36;78.24;101152.06;4852583;29;20888;-75
2021/10/26 10:53:15;;;;;;;10.83;7.47;;;;;;;14.42;78.20;101153.00;4859187;29;20512;-75
2021/10/26 10:55:45;;;;;;;11.30;6.53;;;;;;;14.38;77.95;101160.84;4852923;29;20414;-75
2021/10/26 10:58:27;;;;;;;9.80;5.63;;;;;;;14.34;77.42;101158.88;4855913;29;20410;-75
2021/10/26 11:01:20;;;;;;;9.20;6.28;;;;;;;14.26;76.71;101157.38;4854711;29;20852;-75
2021/10/26 11:03:45;;;;;;;9.70;6.10;;;;;;;14.19;77.18;101161.38;4855622;29;20410;-74
2021/10/26 11:06:43;;;;;;;7.88;5.25;;;;;;;14.07;77.39;101163.34;4859432;29;20895;-74
2021/10/26 11:09:37;;;;;;;9.55;6.00;;;;;;;13.96;78.11;101156.97;4842257;29;20410;-75
2021/10/26 11:12:15;;;;;;;11.73;7.07;;;;;;;13.87;78.05;101159.25;4858142;29;20493;-75
2021/10/26 11:14:45;;;;;;;11.85;7.20;;;;;;;13.84;78.41;101156.22;4858631;29;20763;-75
2021/10/26 11:17:33;;;;;;;12.48;6.72;;;;;;;13.82;78.33;101156.47;4859107;29;20414;-75
2021/10/26 11:19:59;;;;;;;15.60;8.38;;;;;;;13.72;78.28;101150.88;4855534;29;20421;-75
2021/10/26 11:22:49;;;;;;;12.05;8.02;;;;;;;13.69;78.55;101161.44;4857951;29;20902;-75